Spadeadam, United Kingdom
Current Conditions -  °F | °C
As of 9:50 AM on Tuesday 27 Jan 2015 (Local Time) from EGOM Reporting Station
Drizzle Drizzle  
Wind Chill: 33°   Ceiling: Unl
Heat Index: 41°   Visibility: 0.15mi
Dew Point: 41°   Wind: 15mph
Humidity: 100%   Direction: 240°WSW
Pressure: 30.18"   Gusts: NA
Location:  55.05°N, 2.55°W
Report Text: EGOM 270950Z 24013KT 0250 -DZ FG VV/// 05/05 Q1022 RED
Loading
Personal Weather Stations






























Interactive Weather Map New forecast layout! Learn more

10-Day Weather Forecast

Advertisements
Track Severe Weather on mobile